createdAt,value
2019-05-20T00:00:03.123Z,18.40
2019-05-20T00:02:44.369Z,18.30
2019-05-20T00:05:25.946Z,18.30
2019-05-20T00:08:07.442Z,18.20
2019-05-20T00:10:48.711Z,18.20
2019-05-20T00:13:29.931Z,18.20
2019-05-20T00:16:10.863Z,18.20
2019-05-20T00:18:52.042Z,18.10
2019-05-20T00:21:32.968Z,18.10
2019-05-20T00:24:13.695Z,18.10
2019-05-20T00:26:55.330Z,18.10
2019-05-20T00:29:36.620Z,18.00
2019-05-20T00:32:18.240Z,18.00
2019-05-20T00:34:59.815Z,17.90
2019-05-20T00:37:41.360Z,17.90
2019-05-20T00:40:22.997Z,17.80
2019-05-20T00:43:04.602Z,17.80
2019-05-20T00:45:45.931Z,17.70
2019-05-20T00:48:27.272Z,17.70
2019-05-20T00:51:08.413Z,17.60
2019-05-20T00:53:49.543Z,17.70
2019-05-20T00:56:31.059Z,17.80
2019-05-20T00:59:12.277Z,17.60
2019-05-20T01:01:53.808Z,17.50
2019-05-20T01:04:35.053Z,17.50
2019-05-20T01:07:16.255Z,17.50
2019-05-20T01:09:57.505Z,17.40
2019-05-20T01:12:39.131Z,17.40
2019-05-20T01:15:20.293Z,17.30
2019-05-20T01:18:01.705Z,17.30
2019-05-20T01:20:43.165Z,17.20
2019-05-20T01:23:24.540Z,17.20
2019-05-20T01:26:05.245Z,17.10
2019-05-20T01:28:45.030Z,17.10
2019-05-20T01:37:35.910Z,17.10
2019-05-20T01:43:54.177Z,17.20
2019-05-20T01:46:32.884Z,17.00
2019-05-20T01:49:21.634Z,17.00
2019-05-20T01:57:57.106Z,16.90
2019-05-20T02:00:36.892Z,16.90
2019-05-20T02:09:32.997Z,16.80
2019-05-20T02:12:09.319Z,16.80
2019-05-20T02:15:16.883Z,16.80
2019-05-20T02:18:05.586Z,16.80
2019-05-20T02:20:54.186Z,16.70
2019-05-20T02:23:54.754Z,16.70
2019-05-20T02:26:33.261Z,16.70
2019-05-20T02:38:22.528Z,16.60
2019-05-20T02:40:58.796Z,16.60
2019-05-20T02:44:01.547Z,16.60
2019-05-20T02:46:37.837Z,16.50
2019-05-20T02:52:25.444Z,16.50
2019-05-20T02:58:05.526Z,16.50
2019-05-20T03:00:46.993Z,16.50
2019-05-20T03:03:28.569Z,16.50
2019-05-20T03:06:09.886Z,16.50
2019-05-20T03:08:50.700Z,16.80
2019-05-20T03:11:31.995Z,16.50
2019-05-20T03:14:13.507Z,16.50
2019-05-20T03:16:54.814Z,16.90
2019-05-20T03:19:35.590Z,16.60
2019-05-20T03:22:16.992Z,16.60
2019-05-20T03:24:58.613Z,16.60
2019-05-20T03:27:39.524Z,16.60
2019-05-20T03:30:21.263Z,16.50
2019-05-20T03:33:02.298Z,16.50
2019-05-20T03:35:43.551Z,16.50
2019-05-20T03:38:24.709Z,16.50
2019-05-20T03:41:06.099Z,16.50
2019-05-20T03:43:47.454Z,16.50
2019-05-20T03:46:28.283Z,16.40
2019-05-20T03:49:09.859Z,16.30
2019-05-20T03:51:52.554Z,16.20
2019-05-20T03:54:33.049Z,16.30
2019-05-20T03:57:12.749Z,16.30
2019-05-20T04:00:01.664Z,16.20
2019-05-20T04:02:50.346Z,16.40
2019-05-20T04:11:43.429Z,16.20
2019-05-20T04:17:55.606Z,16.10
2019-05-20T04:20:43.354Z,16.10
2019-05-20T04:23:22.145Z,16.10
2019-05-20T04:26:10.807Z,16.10
2019-05-20T04:35:21.356Z,16.10
2019-05-20T04:38:16.417Z,16.00
2019-05-20T04:44:26.027Z,16.00
2019-05-20T04:53:21.420Z,15.70
2019-05-20T04:56:02.870Z,15.90
2019-05-20T04:58:44.354Z,15.70
2019-05-20T05:01:25.541Z,16.00
2019-05-20T05:04:07.055Z,16.00
2019-05-20T05:06:47.877Z,16.00
2019-05-20T05:09:29.454Z,16.00
2019-05-20T05:12:10.800Z,16.00
2019-05-20T05:14:52.246Z,16.00
2019-05-20T05:17:33.719Z,16.10
2019-05-20T05:20:18.442Z,16.10
2019-05-20T05:22:58.749Z,16.00
2019-05-20T05:25:39.552Z,16.00
2019-05-20T05:28:21.174Z,16.00
2019-05-20T05:31:02.363Z,15.90
2019-05-20T05:33:43.892Z,15.90
2019-05-20T05:36:25.380Z,15.90
2019-05-20T05:39:06.564Z,15.90
2019-05-20T05:41:47.899Z,15.80
2019-05-20T05:44:29.399Z,15.90
2019-05-20T05:47:10.844Z,16.00
2019-05-20T05:49:52.024Z,16.10
2019-05-20T05:52:33.404Z,16.20
2019-05-20T05:55:14.580Z,16.00
2019-05-20T05:57:56.016Z,15.60
2019-05-20T06:00:37.516Z,15.60
2019-05-20T06:03:19.078Z,15.40
2019-05-20T06:06:11.684Z,15.40
2019-05-20T06:08:43.931Z,15.40
2019-05-20T06:11:25.604Z,15.40
2019-05-20T06:14:07.084Z,15.50
2019-05-20T06:16:48.672Z,15.50
2019-05-20T06:19:29.987Z,15.70
2019-05-20T06:22:14.366Z,15.70
2019-05-20T06:24:53.922Z,15.60
2019-05-20T06:27:35.565Z,15.80
2019-05-20T06:30:16.941Z,15.80
2019-05-20T06:32:58.577Z,15.90
2019-05-20T06:35:38.421Z,15.90
2019-05-20T06:38:45.894Z,15.90
2019-05-20T06:47:39.076Z,16.10
2019-05-20T06:53:03.905Z,16.00
2019-05-20T06:55:45.584Z,16.20
2019-05-20T06:58:26.850Z,16.10
2019-05-20T07:01:08.426Z,16.10
2019-05-20T07:03:49.860Z,16.10
2019-05-20T07:06:46.096Z,16.10
2019-05-20T07:09:14.757Z,16.20
2019-05-20T07:11:56.188Z,16.00
2019-05-20T07:14:37.043Z,16.00
2019-05-20T07:17:18.885Z,16.00
2019-05-20T07:20:00.273Z,15.90
2019-05-20T07:22:55.431Z,15.70
2019-05-20T07:25:24.437Z,15.40
2019-05-20T07:28:06.097Z,15.40
2019-05-20T07:30:47.011Z,15.40
2019-05-20T07:33:28.226Z,15.60
2019-05-20T07:36:10.240Z,15.50
2019-05-20T07:38:51.326Z,15.40
2019-05-20T07:41:32.790Z,15.40
2019-05-20T07:44:14.347Z,15.40
2019-05-20T07:46:55.143Z,15.60
2019-05-20T07:49:36.878Z,15.70
2019-05-20T07:52:16.552Z,15.90
2019-05-20T07:55:05.669Z,15.90
2019-05-20T08:01:08.577Z,16.00
2019-05-20T08:07:24.421Z,16.00
2019-05-20T08:09:46.267Z,16.10
2019-05-20T08:12:34.029Z,16.00
2019-05-20T08:15:22.758Z,15.80
2019-05-20T08:18:11.387Z,15.70
2019-05-20T08:21:03.042Z,15.70
2019-05-20T08:23:51.673Z,15.80
2019-05-20T08:29:39.347Z,16.10
2019-05-20T08:41:45.524Z,16.00
2019-05-20T08:44:33.558Z,16.10
2019-05-20T08:47:26.209Z,16.00
2019-05-20T08:50:05.084Z,16.00
2019-05-20T08:52:45.736Z,16.10
2019-05-20T08:55:26.585Z,16.30
2019-05-20T08:58:08.262Z,16.20
2019-05-20T09:00:49.201Z,16.20
2019-05-20T09:03:30.841Z,16.30
2019-05-20T09:06:12.272Z,16.30
2019-05-20T09:08:53.613Z,16.30
2019-05-20T09:11:34.702Z,16.50
2019-05-20T09:14:15.901Z,16.70
2019-05-20T09:16:57.576Z,16.90
2019-05-20T09:19:38.727Z,17.10
2019-05-20T09:22:18.636Z,17.10
2019-05-20T09:28:07.026Z,16.90
2019-05-20T09:30:55.674Z,16.50
2019-05-20T09:33:44.494Z,16.40
2019-05-20T09:36:33.129Z,16.10
2019-05-20T09:39:34.006Z,16.50
2019-05-20T09:42:12.944Z,16.60
2019-05-20T09:45:03.214Z,16.50
2019-05-20T09:53:52.642Z,16.60
2019-05-20T09:56:34.105Z,16.60
2019-05-20T09:59:16.439Z,16.50
2019-05-20T10:01:58.089Z,16.60
2019-05-20T10:04:39.034Z,16.70
2019-05-20T10:07:20.655Z,16.70
2019-05-20T10:10:02.469Z,16.50
2019-05-20T10:12:46.403Z,16.40
2019-05-20T10:15:26.982Z,16.50
2019-05-20T10:18:07.682Z,16.60
2019-05-20T10:20:49.382Z,16.70
2019-05-20T10:23:31.858Z,16.70
2019-05-20T10:26:13.108Z,16.70
2019-05-20T10:28:54.686Z,16.60
2019-05-20T10:31:36.654Z,16.60
2019-05-20T10:34:17.847Z,16.70
2019-05-20T10:36:59.139Z,16.80
2019-05-20T10:39:40.780Z,16.70
2019-05-20T10:42:22.179Z,16.90
2019-05-20T10:45:03.165Z,17.10
2019-05-20T10:47:44.826Z,16.50
2019-05-20T10:50:26.481Z,16.50
2019-05-20T10:53:08.084Z,16.50
2019-05-20T10:55:49.394Z,16.60
2019-05-20T10:58:30.769Z,16.80
2019-05-20T11:01:12.430Z,16.70
2019-05-20T11:03:53.720Z,16.70
2019-05-20T11:06:34.851Z,16.70
2019-05-20T11:09:16.075Z,17.00
2019-05-20T11:11:56.984Z,17.10
2019-05-20T11:14:38.667Z,17.20
2019-05-20T11:17:20.085Z,17.40
2019-05-20T11:20:01.092Z,17.40
2019-05-20T11:22:42.700Z,17.30
2019-05-20T11:25:24.091Z,17.40
2019-05-20T11:28:05.587Z,17.50
2019-05-20T11:30:47.279Z,17.60
2019-05-20T11:33:28.848Z,17.90
2019-05-20T11:36:10.328Z,18.00
2019-05-20T11:38:51.819Z,18.30
2019-05-20T11:41:54.183Z,18.50
2019-05-20T11:47:42.870Z,19.00
2019-05-20T11:50:35.490Z,19.10
2019-05-20T11:56:00.134Z,18.70
2019-05-20T11:58:41.702Z,18.70
2019-05-20T12:01:23.147Z,18.80
2019-05-20T12:04:04.618Z,18.60
2019-05-20T12:06:45.747Z,18.50
2019-05-20T12:09:26.499Z,18.40
2019-05-20T12:12:07.935Z,18.50
2019-05-20T12:14:49.490Z,18.50
2019-05-20T12:17:31.076Z,18.50
2019-05-20T12:20:12.888Z,18.60
2019-05-20T12:22:53.673Z,18.60
2019-05-20T12:25:34.439Z,18.70
2019-05-20T12:28:15.168Z,18.90
2019-05-20T12:30:55.954Z,18.70
2019-05-20T12:33:36.726Z,18.70
2019-05-20T12:36:18.228Z,18.60
2019-05-20T12:38:59.080Z,18.80
2019-05-20T12:41:40.611Z,19.00
2019-05-20T12:44:22.305Z,19.10
2019-05-20T12:47:03.449Z,19.00
2019-05-20T12:49:45.228Z,19.00
2019-05-20T12:52:26.100Z,19.20
2019-05-20T12:55:09.500Z,19.10
2019-05-20T12:57:49.996Z,19.10
2019-05-20T13:00:31.593Z,19.00
2019-05-20T13:03:12.932Z,19.10
2019-05-20T13:05:54.514Z,19.10
2019-05-20T13:08:36.079Z,19.10
2019-05-20T13:11:16.794Z,19.00
2019-05-20T13:13:58.216Z,19.00
2019-05-20T13:16:39.340Z,19.20
2019-05-20T13:19:20.773Z,19.20
2019-05-20T13:22:02.507Z,19.10
2019-05-20T13:24:43.989Z,19.10
2019-05-20T13:27:25.622Z,18.90
2019-05-20T13:30:06.924Z,19.20
2019-05-20T13:32:48.414Z,19.20
2019-05-20T13:35:30.013Z,19.10
2019-05-20T13:38:11.363Z,19.10
2019-05-20T13:40:52.710Z,19.00
2019-05-20T13:43:33.729Z,19.10
2019-05-20T13:46:15.059Z,19.40
2019-05-20T13:48:56.265Z,19.80
2019-05-20T13:51:38.675Z,20.20
2019-05-20T13:54:20.092Z,20.50
2019-05-20T13:57:01.763Z,20.60
2019-05-20T13:59:43.234Z,20.30
2019-05-20T14:02:24.841Z,20.20
2019-05-20T14:05:05.729Z,20.00
2019-05-20T14:07:47.218Z,20.00
2019-05-20T14:10:28.702Z,19.80
2019-05-20T14:13:10.088Z,19.70
2019-05-20T14:15:50.881Z,19.70
2019-05-20T14:18:32.181Z,19.70
2019-05-20T14:21:13.220Z,19.60
2019-05-20T14:23:54.948Z,19.70
2019-05-20T14:26:35.867Z,19.70
2019-05-20T14:29:16.853Z,19.70
2019-05-20T14:31:58.294Z,19.60
2019-05-20T14:34:39.777Z,19.70
2019-05-20T14:37:21.784Z,19.70
2019-05-20T14:40:03.047Z,19.50
2019-05-20T14:42:44.627Z,19.30
2019-05-20T14:45:26.048Z,19.20
2019-05-20T14:48:07.271Z,19.10
2019-05-20T14:50:48.557Z,19.30
2019-05-20T14:53:29.682Z,19.10
2019-05-20T14:56:10.934Z,19.30
2019-05-20T14:58:52.568Z,19.10
2019-05-20T15:01:34.116Z,19.00
2019-05-20T15:04:13.833Z,19.10
2019-05-20T15:07:02.523Z,19.30
2019-05-20T15:09:52.879Z,19.20
2019-05-20T15:12:53.256Z,19.10
2019-05-20T15:18:40.984Z,19.30
2019-05-20T15:21:41.411Z,19.20
2019-05-20T15:27:49.241Z,19.30
2019-05-20T15:30:24.754Z,19.50
2019-05-20T15:33:13.579Z,19.40
2019-05-20T15:39:09.158Z,19.30
2019-05-20T15:41:47.749Z,19.20
2019-05-20T15:44:36.350Z,19.20
2019-05-20T15:47:25.119Z,19.20
2019-05-20T15:50:13.994Z,19.20
2019-05-20T15:53:14.694Z,19.00
2019-05-20T15:55:53.183Z,19.20
2019-05-20T15:58:35.894Z,19.30
2019-05-20T16:01:17.615Z,19.40
2019-05-20T16:03:58.918Z,19.50
2019-05-20T16:06:40.397Z,19.70
2019-05-20T16:09:20.197Z,19.50
2019-05-20T16:12:20.843Z,19.40
2019-05-20T16:18:08.816Z,19.70
2019-05-20T16:20:57.489Z,19.70
2019-05-20T16:23:46.138Z,19.50
2019-05-20T16:26:46.493Z,19.70
2019-05-20T16:35:33.281Z,19.20
2019-05-20T16:38:33.595Z,19.20
2019-05-20T16:41:12.221Z,19.30
2019-05-20T16:44:14.863Z,19.30
2019-05-20T16:46:51.420Z,19.40
2019-05-20T16:49:40.134Z,19.40
2019-05-20T16:52:28.727Z,19.40
2019-05-20T16:55:17.487Z,19.50
2019-05-20T17:00:55.695Z,19.60
2019-05-20T17:03:37.186Z,19.50
2019-05-20T17:06:18.345Z,19.40
2019-05-20T17:09:00.165Z,19.40
2019-05-20T17:11:41.721Z,19.20
2019-05-20T17:14:23.225Z,18.80
2019-05-20T17:17:04.601Z,18.10
2019-05-20T17:19:46.229Z,17.70
2019-05-20T17:22:27.602Z,17.60
2019-05-20T17:25:09.177Z,17.50
2019-05-20T17:27:49.931Z,17.40
2019-05-20T17:30:44.442Z,17.20
2019-05-20T17:33:13.899Z,17.30
2019-05-20T17:35:54.701Z,17.10
2019-05-20T17:38:36.286Z,17.10
2019-05-20T17:41:17.027Z,17.00
2019-05-20T17:43:58.981Z,16.80
2019-05-20T17:46:40.126Z,16.80
2019-05-20T17:49:20.842Z,16.80
2019-05-20T17:52:01.910Z,16.70
2019-05-20T17:54:42.976Z,16.60
2019-05-20T17:57:24.551Z,16.30
2019-05-20T18:00:06.621Z,16.10
2019-05-20T18:02:48.029Z,16.20
2019-05-20T18:05:31.106Z,16.30
2019-05-20T18:08:12.235Z,16.10
2019-05-20T18:10:53.711Z,16.10
2019-05-20T18:13:35.392Z,16.20
2019-05-20T18:16:17.352Z,16.30
2019-05-20T18:18:58.587Z,16.20
2019-05-20T18:21:40.081Z,16.40
2019-05-20T18:24:20.806Z,16.40
2019-05-20T18:27:01.689Z,16.50
2019-05-20T18:29:43.549Z,16.50
2019-05-20T18:32:24.892Z,16.70
2019-05-20T18:34:54.563Z,16.70
2019-05-20T18:37:24.173Z,16.80
2019-05-20T18:39:53.762Z,16.80
2019-05-20T18:42:23.667Z,16.90
2019-05-20T18:44:53.252Z,16.80
2019-05-20T18:47:22.817Z,16.80
2019-05-20T18:49:52.537Z,16.80
2019-05-20T18:52:22.946Z,16.70
2019-05-20T18:54:52.661Z,16.80
2019-05-20T18:57:22.244Z,16.90
2019-05-20T18:59:52.084Z,16.90
2019-05-20T19:02:21.657Z,16.90
2019-05-20T19:04:51.654Z,17.00
2019-05-20T19:07:21.461Z,17.00
2019-05-20T19:09:51.190Z,17.10
2019-05-20T19:12:21.184Z,17.10
2019-05-20T19:14:50.864Z,17.10
2019-05-20T19:17:20.672Z,17.20
2019-05-20T19:19:50.343Z,17.20
2019-05-20T19:22:19.999Z,17.30
2019-05-20T19:24:49.625Z,17.30
2019-05-20T19:27:19.185Z,17.30
2019-05-20T19:29:49.223Z,17.40
2019-05-20T19:32:18.810Z,17.40
2019-05-20T19:34:48.435Z,17.40
2019-05-20T19:37:18.039Z,17.40
2019-05-20T19:39:47.862Z,17.40
2019-05-20T19:42:17.814Z,17.50
2019-05-20T19:44:47.413Z,17.50
2019-05-20T19:47:16.995Z,17.50
2019-05-20T19:49:46.864Z,17.50
2019-05-20T19:52:16.512Z,17.50
2019-05-20T19:54:46.065Z,17.50
2019-05-20T19:57:15.703Z,17.50
2019-05-20T19:59:45.333Z,17.40
2019-05-20T20:02:17.823Z,17.50
2019-05-20T20:04:46.731Z,17.40
2019-05-20T20:07:16.371Z,17.10
2019-05-20T20:09:45.976Z,17.10
2019-05-20T20:12:15.523Z,17.20
2019-05-20T20:14:45.417Z,17.20
2019-05-20T20:17:15.059Z,17.10
2019-05-20T20:19:44.661Z,17.20
2019-05-20T20:22:14.548Z,17.10
2019-05-20T20:24:44.423Z,17.10
2019-05-20T20:27:14.008Z,17.20
2019-05-20T20:29:43.612Z,17.40
2019-05-20T20:32:13.189Z,17.40
2019-05-20T20:34:42.797Z,17.40
2019-05-20T20:37:12.636Z,17.50
2019-05-20T20:39:42.547Z,17.50
2019-05-20T20:42:12.113Z,17.50
2019-05-20T20:44:42.004Z,17.60
2019-05-20T20:47:11.566Z,17.60
2019-05-20T20:49:41.180Z,17.70
2019-05-20T20:52:10.768Z,17.60
2019-05-20T20:54:40.364Z,17.70
2019-05-20T20:57:10.018Z,17.80
2019-05-20T20:59:39.657Z,17.80
2019-05-20T21:02:09.287Z,17.80
2019-05-20T21:04:39.190Z,17.80
2019-05-20T21:07:08.778Z,17.90
2019-05-20T21:09:38.368Z,17.90
2019-05-20T21:12:08.071Z,17.80
2019-05-20T21:14:37.667Z,17.70
2019-05-20T21:17:07.374Z,17.60
2019-05-20T21:19:37.417Z,17.50
2019-05-20T21:22:07.163Z,17.50
2019-05-20T21:24:36.755Z,17.30
2019-05-20T21:27:06.540Z,17.30
2019-05-20T21:29:36.122Z,17.30
2019-05-20T21:32:05.840Z,17.20
2019-05-20T21:34:35.394Z,17.20
2019-05-20T21:37:05.292Z,17.40
2019-05-20T21:39:34.891Z,17.50
2019-05-20T21:42:04.508Z,17.50
2019-05-20T21:44:34.167Z,17.50
2019-05-20T21:47:03.742Z,17.20
2019-05-20T21:49:33.506Z,17.00
2019-05-20T21:52:03.076Z,17.00
2019-05-20T21:54:32.739Z,16.90
2019-05-20T21:57:02.318Z,16.80
2019-05-20T21:59:32.225Z,16.80
2019-05-20T22:02:01.868Z,16.80
2019-05-20T22:04:31.596Z,16.80
2019-05-20T22:07:01.248Z,16.70
2019-05-20T22:09:30.849Z,16.70
2019-05-20T22:12:00.454Z,16.70
2019-05-20T22:14:30.130Z,16.60
2019-05-20T22:16:59.843Z,16.50
2019-05-20T22:19:29.422Z,16.50
2019-05-20T22:22:07.017Z,16.40
2019-05-20T22:24:36.597Z,16.30
2019-05-20T22:27:06.539Z,16.30
2019-05-20T22:29:36.087Z,16.30
2019-05-20T22:32:05.699Z,16.30
2019-05-20T22:34:35.323Z,16.20
2019-05-20T22:37:05.023Z,16.10
2019-05-20T22:39:37.397Z,16.10
2019-05-20T22:42:07.057Z,16.00
2019-05-20T22:44:36.601Z,15.90
2019-05-20T22:47:06.246Z,15.80
2019-05-20T22:49:35.773Z,15.90
2019-05-20T22:52:05.467Z,15.90
2019-05-20T22:54:35.031Z,15.70
2019-05-20T22:57:04.666Z,15.70
2019-05-20T22:59:34.322Z,15.70
2019-05-20T23:02:04.034Z,15.70
2019-05-20T23:04:33.617Z,15.80
2019-05-20T23:07:03.260Z,15.90
2019-05-20T23:09:33.088Z,15.90
2019-05-20T23:12:02.756Z,15.90
2019-05-20T23:14:32.577Z,15.90
2019-05-20T23:17:02.497Z,15.80
2019-05-20T23:19:32.159Z,15.90
2019-05-20T23:22:01.775Z,15.90
2019-05-20T23:24:31.634Z,15.90
2019-05-20T23:27:01.240Z,15.90
2019-05-20T23:29:31.078Z,15.90
2019-05-20T23:32:00.721Z,15.90
2019-05-20T23:34:30.309Z,15.80
2019-05-20T23:36:59.920Z,15.70
2019-05-20T23:39:29.501Z,15.70
2019-05-20T23:41:59.170Z,15.60
2019-05-20T23:44:28.768Z,15.60
2019-05-20T23:46:58.379Z,15.70
2019-05-20T23:49:27.981Z,15.60
2019-05-20T23:51:57.630Z,15.70
2019-05-20T23:54:27.336Z,15.80
2019-05-20T23:56:57.241Z,15.70
2019-05-20T23:59:26.946Z,15.60
